Time;durP1;ratioP1;P1;durP2;ratioP2;P2;SDS_P1;SDS_P2;PMS_P1;PMS_P2;Temp;Humidity;BMP_temperature;BMP_pressure;BME280_temperature;BME280_humidity;BME280_pressure;Samples;Min_cycle;Max_cycle;Signal;HPM_P1;HPM_P2
2022/08/08 00:00:09;;;;;;;5.45;2.97;;;28.10;52.50;;;;;;5008816;28;20030;-66
2022/08/08 00:02:55;;;;;;;5.35;2.90;;;28.20;52.40;;;;;;4990822;28;20530;-67
2022/08/08 00:05:27;;;;;;;3.90;2.80;;;28.20;52.40;;;;;;5004243;28;20135;-66
2022/08/08 00:08:17;;;;;;;3.63;2.65;;;28.20;52.50;;;;;;4992419;28;20057;-66
2022/08/08 00:10:58;;;;;;;4.32;2.90;;;28.10;52.50;;;;;;5012697;28;20061;-66
2022/08/08 00:13:47;;;;;;;5.82;3.22;;;28.20;52.50;;;;;;5012533;28;20046;-66
2022/08/08 00:16:24;;;;;;;3.92;3.00;;;28.30;52.50;;;;;;5012671;28;20056;-66
2022/08/08 00:19:26;;;;;;;6.22;2.90;;;28.30;52.50;;;;;;4996270;28;20136;-66
2022/08/08 00:22:01;;;;;;;3.53;2.37;;;28.30;52.30;;;;;;5012216;28;20042;-66
2022/08/08 00:24:38;;;;;;;10.70;2.80;;;28.20;52.50;;;;;;5012508;28;20037;-67
2022/08/08 00:27:10;;;;;;;3.40;2.60;;;28.30;52.50;;;;;;5012484;28;20077;-66
2022/08/08 00:29:48;;;;;;;3.80;2.58;;;28.30;52.50;;;;;;5012543;28;20422;-66
2022/08/08 00:32:29;;;;;;;6.13;2.95;;;28.30;52.50;;;;;;4995984;28;20040;-67
2022/08/08 00:35:23;;;;;;;3.45;2.50;;;28.30;51.90;;;;;;5032697;28;20053;-67
2022/08/08 00:37:57;;;;;;;4.63;2.83;;;28.40;52.50;;;;;;5034427;28;20370;-66
2022/08/08 00:40:29;;;;;;;3.95;3.22;;;28.30;52.50;;;;;;5083825;28;20083;-66
2022/08/08 00:43:10;;;;;;;3.17;2.50;;;28.30;52.50;;;;;;5091880;28;20082;-67
2022/08/08 00:45:57;;;;;;;3.40;2.95;;;28.40;52.40;;;;;;5092113;28;20048;-67
2022/08/08 00:48:44;;;;;;;4.38;2.95;;;28.30;52.30;;;;;;5092347;28;20274;-67
2022/08/08 00:51:48;;;;;;;5.70;3.17;;;28.30;52.40;;;;;;5091929;28;20403;-66
2022/08/08 00:54:43;;;;;;;3.95;2.95;;;28.40;52.20;;;;;;5074852;28;20503;-66
2022/08/08 00:57:39;;;;;;;6.40;3.13;;;28.30;52.50;;;;;;4994846;28;20427;-66
2022/08/08 01:00:25;;;;;;;4.32;3.17;;;28.40;52.60;;;;;;5009708;28;20075;-67
2022/08/08 01:03:22;;;;;;;5.25;3.08;;;28.30;52.60;;;;;;5011536;28;20077;-67
2022/08/08 01:05:52;;;;;;;6.53;3.00;;;28.30;52.70;;;;;;4995208;28;20439;-67
2022/08/08 01:08:53;;;;;;;7.03;3.20;;;28.30;52.60;;;;;;4995176;28;20112;-66
2022/08/08 01:12:14;;;;;;;6.25;3.38;;;28.40;52.70;;;;;;5002632;28;20132;-67
2022/08/08 01:15:21;;;;;;;5.15;2.88;;;28.40;52.60;;;;;;4971196;28;20141;-66
2022/08/08 01:18:17;;;;;;;7.70;4.38;;;28.30;52.70;;;;;;4972555;28;20150;-67
2022/08/08 01:21:24;;;;;;;4.47;2.85;;;28.40;52.30;;;;;;4914741;29;20130;-67
2022/08/08 01:24:19;;;;;;;3.25;2.90;;;28.40;52.80;;;;;;4915179;29;20028;-67
2022/08/08 01:27:16;;;;;;;10.20;2.92;;;28.50;52.80;;;;;;4914781;29;20048;-67
2022/08/08 01:30:20;;;;;;;4.45;2.67;;;28.40;52.70;;;;;;4861521;29;20072;-66
2022/08/08 01:33:16;;;;;;;7.50;3.20;;;28.50;52.70;;;;;;4895778;29;20048;-66
2022/08/08 01:36:20;;;;;;;3.72;2.35;;;28.30;52.80;;;;;;4914712;29;20047;-66
2022/08/08 01:39:14;;;;;;;6.40;2.85;;;28.40;52.80;;;;;;4912513;29;20654;-65
2022/08/08 01:42:04;;;;;;;2.80;1.65;;;28.30;52.80;;;;;;4895930;29;20029;-66
2022/08/08 01:45:11;;;;;;;2.25;2.05;;;28.40;52.70;;;;;;4901598;29;20058;-66
2022/08/08 01:47:55;;;;;;;3.60;2.53;;;28.30;52.60;;;;;;4962152;28;20047;-66
2022/08/08 01:50:45;;;;;;;7.10;4.18;;;28.40;52.60;;;;;;4955720;28;20470;-66
2022/08/08 01:53:19;;;;;;;3.90;2.08;;;28.40;52.50;;;;;;4955661;28;20373;-66
2022/08/08 01:56:06;;;;;;;2.30;2.08;;;28.20;52.40;;;;;;4955432;28;20050;-66
2022/08/08 01:58:45;;;;;;;5.38;2.58;;;28.20;52.40;;;;;;5040586;28;20043;-65
2022/08/08 02:01:20;;;;;;;3.50;2.42;;;28.30;52.60;;;;;;5044503;28;20505;-65
2022/08/08 02:04:03;;;;;;;5.85;1.77;;;28.20;52.70;;;;;;5052843;28;20033;-66
2022/08/08 02:06:48;;;;;;;4.32;3.10;;;28.20;52.80;;;;;;5051528;28;20041;-66
2022/08/08 02:09:54;;;;;;;3.85;2.15;;;28.20;52.60;;;;;;5051469;28;20049;-66
2022/08/08 02:12:28;;;;;;;5.03;3.03;;;28.20;52.70;;;;;;5056440;28;20407;-66
2022/08/08 02:14:54;;;;;;;3.63;3.13;;;28.30;52.50;;;;;;5073518;28;20040;-66
2022/08/08 02:17:35;;;;;;;8.90;2.67;;;28.30;52.70;;;;;;5073253;28;20496;-66
2022/08/08 02:20:32;;;;;;;7.47;3.00;;;28.20;52.70;;;;;;5073419;28;20059;-67
2022/08/08 02:23:26;;;;;;;4.57;3.13;;;28.20;52.70;;;;;;4971013;28;20046;-66
2022/08/08 02:26:10;;;;;;;4.78;3.10;;;28.30;52.70;;;;;;4971168;28;20034;-66
2022/08/08 02:29:10;;;;;;;3.28;2.50;;;28.30;52.60;;;;;;4938711;28;20039;-66
2022/08/08 02:32:05;;;;;;;5.63;2.75;;;28.30;52.60;;;;;;4954395;28;20169;-67
2022/08/08 02:35:12;;;;;;;7.15;2.85;;;28.20;52.60;;;;;;4951574;29;20051;-65
2022/08/08 02:38:32;;;;;;;5.35;2.72;;;28.30;52.60;;;;;;4932392;29;20056;-66
2022/08/08 02:41:19;;;;;;;5.15;2.17;;;28.20;52.60;;;;;;4913534;29;20123;-66
2022/08/08 02:43:45;;;;;;;3.20;2.88;;;28.10;52.50;;;;;;4913255;29;20580;-65
2022/08/08 02:46:14;;;;;;;3.55;2.63;;;28.20;52.60;;;;;;4897704;29;20534;-66
2022/08/08 02:48:49;;;;;;;3.75;2.80;;;28.10;52.70;;;;;;4913461;29;20114;-66
2022/08/08 02:51:38;;;;;;;3.63;1.63;;;28.10;52.80;;;;;;4913617;29;20405;-66
2022/08/08 02:54:57;;;;;;;2.33;2.13;;;28.20;52.80;;;;;;4903859;29;20071;-66
2022/08/08 02:57:42;;;;;;;4.07;2.67;;;28.20;52.90;;;;;;4913775;29;20112;-66
2022/08/08 03:00:26;;;;;;;1.08;1.05;;;28.20;52.80;;;;;;4922665;29;20123;-66
2022/08/08 03:03:04;;;;;;;2.90;2.60;;;28.20;52.90;;;;;;4931760;29;20123;-66
2022/08/08 03:05:42;;;;;;;5.72;2.65;;;28.20;52.90;;;;;;4938520;29;20043;-66
2022/08/08 03:08:26;;;;;;;4.18;3.17;;;28.10;52.90;;;;;;4952710;28;20461;-66
2022/08/08 03:11:29;;;;;;;4.13;2.47;;;28.30;53.00;;;;;;4954254;28;20134;-66
2022/08/08 03:14:19;;;;;;;2.78;2.40;;;28.10;53.00;;;;;;4959140;28;20048;-66
2022/08/08 03:17:26;;;;;;;3.90;3.50;;;28.10;53.00;;;;;;4992740;28;20047;-66
2022/08/08 03:20:09;;;;;;;9.13;3.03;;;28.20;53.00;;;;;;4976209;28;20042;-66
2022/08/08 03:22:52;;;;;;;4.72;3.15;;;28.20;53.00;;;;;;4973396;28;20625;-66
2022/08/08 03:25:22;;;;;;;3.50;3.00;;;28.20;53.00;;;;;;4981976;28;20042;-66
2022/08/08 03:28:29;;;;;;;3.00;2.75;;;28.30;53.00;;;;;;5028615;28;20091;-66
2022/08/08 03:30:56;;;;;;;1.83;1.45;;;28.20;53.00;;;;;;5014265;28;20048;-66
2022/08/08 03:33:23;;;;;;;2.38;2.00;;;28.10;52.80;;;;;;5090692;28;20055;-66
2022/08/08 03:35:54;;;;;;;10.93;3.47;;;28.20;53.00;;;;;;5072151;28;20054;-66
2022/08/08 03:38:21;;;;;;;3.28;2.97;;;28.00;53.00;;;;;;5088991;28;20495;-66
2022/08/08 03:40:50;;;;;;;2.75;2.55;;;28.10;52.80;;;;;;5072326;28;20040;-67
2022/08/08 03:43:17;;;;;;;2.42;2.13;;;28.00;52.90;;;;;;5070616;28;20044;-66
2022/08/08 03:45:44;;;;;;;5.50;3.00;;;28.20;52.80;;;;;;5054278;28;20471;-67
2022/08/08 03:48:30;;;;;;;2.97;2.42;;;28.00;52.90;;;;;;5067969;28;20054;-67
2022/08/08 03:50:57;;;;;;;3.53;3.22;;;28.10;53.00;;;;;;5046802;28;20147;-66
2022/08/08 03:53:24;;;;;;;4.25;3.53;;;28.00;53.00;;;;;;5034230;28;20041;-67
2022/08/08 03:55:50;;;;;;;4.03;3.13;;;28.00;53.00;;;;;;5012006;28;20128;-66
2022/08/08 03:58:24;;;;;;;5.40;3.65;;;28.00;53.20;;;;;;5025283;28;20066;-66
2022/08/08 04:00:57;;;;;;;3.90;3.17;;;28.00;53.50;;;;;;4977437;28;20050;-69
2022/08/08 04:03:36;;;;;;;5.45;2.95;;;28.00;53.50;;;;;;5026466;28;20042;-72
2022/08/08 04:06:07;;;;;;;3.88;3.08;;;28.10;56.10;;;;;;4998868;28;20052;-72
2022/08/08 04:08:36;;;;;;;10.88;3.90;;;28.20;57.30;;;;;;5031810;28;20067;-72
2022/08/08 04:11:11;;;;;;;5.75;3.67;;;28.40;58.80;;;;;;5032116;28;20052;-71
2022/08/08 04:13:37;;;;;;;5.50;3.38;;;28.60;58.60;;;;;;5032345;28;20040;-71
2022/08/08 04:16:03;;;;;;;3.70;2.78;;;28.60;55.40;;;;;;5048980;28;20048;-70
2022/08/08 04:18:33;;;;;;;3.85;2.95;;;28.60;54.80;;;;;;5030556;28;20436;-72
2022/08/08 04:20:59;;;;;;;4.38;3.10;;;28.40;54.40;;;;;;5017035;28;20557;-72
2022/08/08 04:23:25;;;;;;;5.90;2.10;;;28.40;54.20;;;;;;5045505;28;20082;-73
2022/08/08 04:25:51;;;;;;;1.02;1.00;;;28.40;54.50;;;;;;5050072;28;20124;-73
2022/08/08 04:28:18;;;;;;;2.15;1.92;;;28.50;53.80;;;;;;5031515;28;20140;-73
2022/08/08 04:30:46;;;;;;;0.57;0.57;;;28.40;53.40;;;;;;5065170;28;20049;-73
2022/08/08 04:33:12;;;;;;;2.05;1.38;;;28.40;53.20;;;;;;5031763;28;20045;-73
2022/08/08 04:35:39;;;;;;;2.35;1.38;;;28.30;52.70;;;;;;5032214;28;20044;-74
2022/08/08 04:38:06;;;;;;;3.03;2.15;;;28.30;52.80;;;;;;5031682;28;20041;-74
2022/08/08 04:40:38;;;;;;;1.33;1.23;;;28.30;52.60;;;;;;5031919;28;20410;-72
2022/08/08 04:43:04;;;;;;;0.77;0.77;;;28.30;52.50;;;;;;5051692;28;20076;-73
2022/08/08 04:45:38;;;;;;;2.33;2.10;;;28.20;52.10;;;;;;5051586;28;20032;-70
2022/08/08 04:48:05;;;;;;;2.53;1.48;;;28.30;51.20;;;;;;5051275;28;20076;-71
2022/08/08 04:50:42;;;;;;;2.50;1.83;;;28.10;50.70;;;;;;5047931;28;20036;-74
2022/08/08 04:53:11;;;;;;;1.65;1.38;;;28.00;50.90;;;;;;5043448;28;20564;-71
2022/08/08 04:55:39;;;;;;;2.45;1.60;;;28.00;51.60;;;;;;5030932;28;20129;-71
2022/08/08 04:58:06;;;;;;;4.85;2.33;;;28.00;51.60;;;;;;5031953;28;20046;-72
2022/08/08 05:00:32;;;;;;;2.45;1.30;;;28.00;52.00;;;;;;5047688;28;20095;-71
2022/08/08 05:02:58;;;;;;;1.52;1.42;;;28.00;52.20;;;;;;5052509;28;20037;-72
2022/08/08 05:05:25;;;;;;;1.30;1.20;;;28.00;52.40;;;;;;5052295;28;20107;-73
2022/08/08 05:07:51;;;;;;;1.73;1.23;;;28.10;53.50;;;;;;5011634;28;20053;-73
2022/08/08 05:10:17;;;;;;;2.40;2.05;;;28.20;52.80;;;;;;5010245;28;20041;-70
2022/08/08 05:12:43;;;;;;;0.98;0.82;;;28.00;53.00;;;;;;4978291;28;20049;-71
2022/08/08 05:15:10;;;;;;;4.05;3.15;;;28.10;52.40;;;;;;4994667;28;20698;-72
2022/08/08 05:17:36;;;;;;;1.50;1.40;;;28.10;52.30;;;;;;5005165;28;20042;-70
2022/08/08 05:20:03;;;;;;;1.02;1.02;;;28.10;52.30;;;;;;4994391;28;20045;-70
2022/08/08 05:22:34;;;;;;;4.45;1.15;;;28.10;52.30;;;;;;4994352;28;20049;-71
2022/08/08 05:25:02;;;;;;;2.47;1.63;;;28.00;53.00;;;;;;4996165;28;20033;-72
2022/08/08 05:27:28;;;;;;;3.15;1.73;;;28.00;53.50;;;;;;4993916;28;20049;-71
2022/08/08 05:29:54;;;;;;;3.50;3.17;;;28.10;53.60;;;;;;4978407;28;20067;-73
2022/08/08 05:32:24;;;;;;;3.60;3.22;;;28.10;53.70;;;;;;4974637;28;20042;-71
2022/08/08 05:35:11;;;;;;;7.72;3.80;;;28.00;53.50;;;;;;4990451;28;20156;-73
2022/08/08 05:37:46;;;;;;;5.63;3.05;;;28.00;52.80;;;;;;4960453;28;20396;-70
2022/08/08 05:40:13;;;;;;;4.93;3.08;;;27.90;52.60;;;;;;5013010;28;20039;-69
2022/08/08 05:42:47;;;;;;;3.95;3.25;;;28.00;53.50;;;;;;5013554;28;20076;-72
2022/08/08 05:45:14;;;;;;;5.13;3.50;;;28.00;54.10;;;;;;5011614;28;20143;-72
2022/08/08 05:47:42;;;;;;;5.40;3.03;;;27.90;54.00;;;;;;4999525;28;20441;-75
2022/08/08 05:50:10;;;;;;;3.85;2.55;;;27.90;53.50;;;;;;5020995;28;20169;-70
2022/08/08 05:52:38;;;;;;;6.75;3.17;;;27.80;53.60;;;;;;5011428;28;20045;-73
2022/08/08 05:55:06;;;;;;;4.50;3.00;;;27.90;52.20;;;;;;5030371;28;20528;-70
2022/08/08 05:57:35;;;;;;;6.28;3.90;;;27.70;52.00;;;;;;5013680;28;20072;-69
2022/08/08 06:00:06;;;;;;;5.05;2.60;;;27.70;52.00;;;;;;5030549;28;20038;-71
2022/08/08 06:03:11;;;;;;;4.40;3.20;;;27.60;52.40;;;;;;5013829;28;20049;-70
2022/08/08 06:05:50;;;;;;;4.75;3.00;;;27.60;52.30;;;;;;5046284;28;20510;-70
2022/08/08 06:08:33;;;;;;;6.55;3.05;;;27.60;52.20;;;;;;5051242;28;20059;-70
2022/08/08 06:11:04;;;;;;;6.18;2.95;;;27.60;52.20;;;;;;5060038;28;20041;-70
2022/08/08 06:13:31;;;;;;;5.53;3.20;;;27.70;52.30;;;;;;5050837;28;20115;-70
2022/08/08 06:15:58;;;;;;;4.05;3.17;;;27.60;52.20;;;;;;5053323;28;20500;-70
2022/08/08 06:18:52;;;;;;;4.43;3.43;;;27.70;51.90;;;;;;5021777;28;20052;-68
2022/08/08 06:21:20;;;;;;;3.97;3.30;;;27.90;51.90;;;;;;5024075;28;20034;-68
2022/08/08 06:23:46;;;;;;;5.28;2.90;;;27.80;51.40;;;;;;5008166;28;20042;-70
2022/08/08 06:26:13;;;;;;;5.55;3.50;;;27.70;51.50;;;;;;5007671;28;20084;-69
2022/08/08 06:29:04;;;;;;;6.20;3.80;;;27.90;51.70;;;;;;5003517;28;20117;-70
2022/08/08 06:31:37;;;;;;;4.03;3.40;;;27.80;51.50;;;;;;5005649;28;20045;-69
2022/08/08 06:34:18;;;;;;;7.22;3.38;;;27.80;51.60;;;;;;5020587;28;20417;-68
2022/08/08 06:36:50;;;;;;;5.90;3.53;;;27.80;51.50;;;;;;5005810;28;20053;-67
2022/08/08 06:39:18;;;;;;;4.53;3.45;;;27.80;51.70;;;;;;5021094;28;20880;-67
2022/08/08 06:41:56;;;;;;;6.60;2.72;;;27.70;51.20;;;;;;5004139;28;20052;-67
2022/08/08 06:44:27;;;;;;;5.05;3.10;;;27.80;51.60;;;;;;5003032;28;20030;-69
2022/08/08 06:46:57;;;;;;;5.18;2.83;;;27.70;51.70;;;;;;5007821;28;20049;-70
2022/08/08 06:49:25;;;;;;;6.20;3.92;;;27.80;52.00;;;;;;4990182;28;20053;-69
2022/08/08 06:51:53;;;;;;;5.85;4.00;;;27.70;52.20;;;;;;5001701;28;20155;-68
2022/08/08 06:54:24;;;;;;;4.55;3.70;;;27.80;51.70;;;;;;5023364;28;20044;-69
2022/08/08 06:56:53;;;;;;;5.97;3.10;;;27.70;52.00;;;;;;5050193;28;20489;-69
2022/08/08 06:59:20;;;;;;;6.60;3.40;;;27.70;52.50;;;;;;5053363;28;20072;-68
2022/08/08 07:01:59;;;;;;;9.05;3.60;;;27.70;52.80;;;;;;5059711;28;20502;-71
2022/08/08 07:04:49;;;;;;;3.83;2.83;;;27.60;52.90;;;;;;5007684;28;20427;-72
2022/08/08 07:07:22;;;;;;;4.88;3.53;;;27.70;53.10;;;;;;5030706;28;20119;-72
2022/08/08 07:10:04;;;;;;;5.65;3.17;;;27.50;53.00;;;;;;5033142;28;20048;-68
2022/08/08 07:12:43;;;;;;;3.65;3.20;;;27.60;52.90;;;;;;5050342;28;20036;-68
2022/08/08 07:15:15;;;;;;;6.00;3.42;;;27.60;52.90;;;;;;5053722;28;20052;-67
2022/08/08 07:17:45;;;;;;;4.93;3.67;;;27.80;52.90;;;;;;5055794;28;20075;-70
2022/08/08 07:20:26;;;;;;;7.68;4.15;;;27.80;52.90;;;;;;5028668;28;20049;-72
2022/08/08 07:23:10;;;;;;;8.57;3.88;;;27.80;53.00;;;;;;5030070;28;20095;-69
2022/08/08 07:25:40;;;;;;;3.78;2.80;;;27.80;53.00;;;;;;5032465;28;20064;-67
2022/08/08 07:28:08;;;;;;;6.35;3.28;;;27.80;53.00;;;;;;5045703;28;20041;-69
2022/08/08 07:30:37;;;;;;;5.53;3.50;;;27.80;53.00;;;;;;4990425;28;20072;-68
2022/08/08 07:33:03;;;;;;;4.82;3.00;;;27.70;52.90;;;;;;5030112;28;20041;-72
2022/08/08 07:35:51;;;;;;;7.90;3.45;;;27.80;53.00;;;;;;5047856;28;20044;-68
2022/08/08 07:38:18;;;;;;;5.63;3.05;;;27.80;54.20;;;;;;5045886;28;20056;-70
2022/08/08 07:40:57;;;;;;;8.85;3.65;;;27.80;55.10;;;;;;5031978;28;20075;-70
2022/08/08 07:43:24;;;;;;;4.88;3.65;;;27.60;55.30;;;;;;5011505;28;20083;-70
2022/08/08 07:45:53;;;;;;;4.10;2.95;;;27.70;55.60;;;;;;5021030;28;20045;-68
2022/08/08 07:48:19;;;;;;;6.55;3.13;;;27.60;55.60;;;;;;5028752;28;20462;-68
2022/08/08 07:50:47;;;;;;;4.88;3.40;;;27.60;55.10;;;;;;5028939;28;20269;-69
2022/08/08 07:53:16;;;;;;;4.95;3.30;;;27.60;54.80;;;;;;5009404;28;20049;-69
2022/08/08 07:55:48;;;;;;;11.00;3.70;;;27.70;54.80;;;;;;5012487;28;20050;-68
2022/08/08 07:58:24;;;;;;;4.03;3.25;;;27.70;54.70;;;;;;5011975;28;20038;-70
2022/08/08 08:01:04;;;;;;;6.38;3.80;;;27.60;54.70;;;;;;5008696;28;20114;-69
2022/08/08 08:03:33;;;;;;;4.78;3.28;;;27.60;54.60;;;;;;5010271;28;20045;-68
2022/08/08 08:06:04;;;;;;;8.68;2.55;;;27.60;54.40;;;;;;5039712;28;20175;-69
2022/08/08 08:08:45;;;;;;;4.07;3.03;;;27.70;54.10;;;;;;5016035;28;20045;-69
2022/08/08 08:11:14;;;;;;;3.75;3.28;;;27.70;54.00;;;;;;5009937;28;20042;-70
2022/08/08 08:13:45;;;;;;;4.28;3.15;;;27.60;53.80;;;;;;5015748;28;20045;-69
2022/08/08 08:16:21;;;;;;;1.80;1.40;;;27.60;53.60;;;;;;5041790;28;20208;-69
2022/08/08 08:19:01;;;;;;;3.47;3.17;;;27.70;53.30;;;;;;5012057;28;20030;-69
2022/08/08 08:21:45;;;;;;;4.68;3.25;;;27.80;53.30;;;;;;5011711;28;20069;-69
2022/08/08 08:24:18;;;;;;;3.83;3.53;;;27.70;53.10;;;;;;5025065;28;20041;-69
2022/08/08 08:26:45;;;;;;;4.60;3.28;;;27.60;53.00;;;;;;5016656;28;20199;-69
2022/08/08 08:29:11;;;;;;;5.80;3.40;;;27.70;53.10;;;;;;5011053;28;20034;-69
2022/08/08 08:31:39;;;;;;;4.25;3.55;;;27.60;54.50;;;;;;5040719;28;20041;-69
2022/08/08 08:34:05;;;;;;;4.68;3.50;;;27.60;54.20;;;;;;5053522;28;20151;-70
2022/08/08 08:36:34;;;;;;;3.83;2.95;;;27.60;54.10;;;;;;5053604;28;20037;-67
2022/08/08 08:39:03;;;;;;;4.68;3.22;;;27.50;54.00;;;;;;5051028;28;20028;-72
2022/08/08 08:41:45;;;;;;;3.75;2.58;;;27.60;54.00;;;;;;5040384;28;20532;-71
2022/08/08 08:44:14;;;;;;;4.80;3.30;;;27.50;54.00;;;;;;5078420;28;20107;-69
2022/08/08 08:46:51;;;;;;;4.25;3.30;;;27.60;54.10;;;;;;5073542;28;20033;-70
2022/08/08 08:49:19;;;;;;;3.33;2.90;;;27.60;54.00;;;;;;5053219;28;20094;-71
2022/08/08 08:51:51;;;;;;;4.60;2.75;;;27.70;54.10;;;;;;5052322;28;20499;-72
2022/08/08 08:54:21;;;;;;;3.10;2.13;;;27.60;53.80;;;;;;5014900;28;20497;-69
2022/08/08 08:56:48;;;;;;;4.95;2.10;;;27.60;55.50;;;;;;5015608;28;20057;-68
2022/08/08 08:59:18;;;;;;;7.53;2.83;;;27.80;55.20;;;;;;5008463;28;20134;-68
2022/08/08 09:02:22;;;;;;;3.28;2.95;;;27.60;55.40;;;;;;5024249;28;20042;-72
2022/08/08 09:04:58;;;;;;;9.15;4.05;;;27.70;54.80;;;;;;4991655;28;20043;-70
2022/08/08 09:07:28;;;;;;;3.40;2.80;;;27.70;55.10;;;;;;4981887;28;20033;-70
2022/08/08 09:09:57;;;;;;;4.82;3.55;;;27.80;54.90;;;;;;4994263;28;20057;-71
2022/08/08 09:12:27;;;;;;;3.15;1.92;;;27.80;54.70;;;;;;5010559;28;20061;-69
2022/08/08 09:14:57;;;;;;;0.50;0.50;;;27.80;55.00;;;;;;5011724;28;20049;-68
2022/08/08 09:17:30;;;;;;;4.20;1.58;;;27.80;55.30;;;;;;4995273;28;20085;-69
2022/08/08 09:19:59;;;;;;;5.78;2.85;;;27.80;55.30;;;;;;4997482;28;20048;-70
2022/08/08 09:22:33;;;;;;;1.50;1.40;;;27.90;55.30;;;;;;5001454;28;20042;-70
2022/08/08 09:25:03;;;;;;;8.77;2.72;;;27.80;55.40;;;;;;5024956;28;20048;-70
2022/08/08 09:27:35;;;;;;;1.75;1.27;;;27.90;55.00;;;;;;5051006;28;20045;-70
2022/08/08 09:30:13;;;;;;;3.63;1.95;;;27.90;56.10;;;;;;5051154;28;20041;-70
2022/08/08 09:32:41;;;;;;;6.72;3.85;;;27.90;57.20;;;;;;5033373;28;20044;-70
2022/08/08 09:35:19;;;;;;;6.32;3.00;;;28.00;56.60;;;;;;5029730;28;20552;-71
2022/08/08 09:37:49;;;;;;;2.83;1.83;;;28.10;54.90;;;;;;5032018;28;20064;-73
2022/08/08 09:40:22;;;;;;;1.25;1.15;;;27.90;54.00;;;;;;5031448;28;20054;-69
2022/08/08 09:43:05;;;;;;;4.05;3.63;;;27.90;53.60;;;;;;5029476;28;20164;-70
2022/08/08 09:45:34;;;;;;;;;;;28.00;54.30;;;;;;5031594;28;20041;-70
2022/08/08 09:48:03;;;;;;;5.25;3.63;;;28.30;58.00;;;;;;5031360;28;19909;-70
2022/08/08 09:50:29;;;;;;;4.15;3.72;;;28.70;60.70;;;;;;5048398;28;20779;-77
2022/08/08 09:52:56;;;;;;;3.75;2.47;;;28.70;55.60;;;;;;5051475;28;20512;-74
2022/08/08 09:55:30;;;;;;;5.95;4.82;;;28.60;57.10;;;;;;5052678;28;20052;-73
2022/08/08 09:58:06;;;;;;;3.35;2.88;;;28.80;56.80;;;;;;5036195;28;20052;-75
2022/08/08 10:00:36;;;;;;;5.22;3.45;;;28.50;57.60;;;;;;5053908;28;20760;-73
2022/08/08 10:03:04;;;;;;;4.30;3.50;;;28.40;56.40;;;;;;5053870;28;20029;-74
2022/08/08 10:05:35;;;;;;;2.45;2.35;;;28.40;56.30;;;;;;5053051;28;20461;-73
2022/08/08 10:08:03;;;;;;;3.10;2.33;;;28.60;58.20;;;;;;5053597;28;20025;-74
2022/08/08 10:10:37;;;;;;;3.25;2.53;;;28.80;57.20;;;;;;5053089;28;20045;-76
2022/08/08 10:13:21;;;;;;;7.88;5.60;;;29.20;59.30;;;;;;5068233;28;20036;-74
2022/08/08 10:15:49;;;;;;;3.65;2.60;;;29.40;59.30;;;;;;5055369;28;20582;-73
2022/08/08 10:18:28;;;;;;;5.88;2.95;;;29.60;54.20;;;;;;5052761;28;20025;-73
2022/08/08 10:21:00;;;;;;;3.22;2.38;;;29.50;52.90;;;;;;5053249;28;20402;-74
2022/08/08 10:23:44;;;;;;;4.82;3.03;;;29.10;52.60;;;;;;5052980;28;20381;-74
2022/08/08 10:26:21;;;;;;;5.88;2.22;;;29.10;52.60;;;;;;5052435;28;20045;-73
2022/08/08 10:29:05;;;;;;;1.45;1.27;;;29.00;53.00;;;;;;5052716;28;20132;-73
2022/08/08 10:34:19;;;;;;;2.17;1.52;;;29.00;53.40;;;;;;5051606;28;20486;-73
2022/08/08 10:36:46;;;;;;;3.33;3.10;;;28.80;53.00;;;;;;5051483;28;20052;-74
2022/08/08 10:39:19;;;;;;;4.47;2.83;;;28.80;52.90;;;;;;5052424;28;20064;-75
2022/08/08 10:42:01;;;;;;;3.25;2.95;;;28.90;52.80;;;;;;5053074;28;20477;-76
2022/08/08 10:44:27;;;;;;;4.18;3.58;;;28.80;52.50;;;;;;5058729;28;20033;-74
2022/08/08 10:46:53;;;;;;;5.80;3.92;;;28.70;52.70;;;;;;5036105;28;20095;-76
2022/08/08 10:49:22;;;;;;;3.25;2.95;;;28.60;52.80;;;;;;5032594;28;20041;-76
2022/08/08 10:51:48;;;;;;;6.72;3.33;;;28.60;53.30;;;;;;5046234;28;20029;-72
2022/08/08 10:54:21;;;;;;;4.35;3.35;;;28.60;53.50;;;;;;5051387;28;20474;-73
2022/08/08 10:56:59;;;;;;;5.50;4.00;;;28.60;53.40;;;;;;5052190;28;20371;-73
2022/08/08 10:59:26;;;;;;;5.22;3.40;;;28.60;53.40;;;;;;5052172;28;20061;-72
2022/08/08 11:01:52;;;;;;;4.90;3.90;;;28.50;53.60;;;;;;5053679;28;20469;-73
2022/08/08 11:04:18;;;;;;;4.38;3.65;;;28.40;53.70;;;;;;5072120;28;20041;-74
2022/08/08 11:06:44;;;;;;;4.68;2.95;;;28.40;54.70;;;;;;5072488;28;20038;-71
2022/08/08 11:09:11;;;;;;;6.28;4.07;;;28.30;55.60;;;;;;5071936;28;20132;-71
2022/08/08 11:11:39;;;;;;;4.00;2.45;;;28.30;56.20;;;;;;5072132;28;20040;-75
2022/08/08 11:14:07;;;;;;;5.80;3.58;;;28.30;56.60;;;;;;5068457;28;20036;-70
2022/08/08 11:16:41;;;;;;;5.03;3.85;;;28.30;55.60;;;;;;5051318;28;20491;-67
2022/08/08 11:19:08;;;;;;;4.93;3.75;;;28.20;55.60;;;;;;5032544;28;20056;-70
2022/08/08 11:21:45;;;;;;;4.47;3.60;;;28.10;55.20;;;;;;5050122;28;20043;-72
2022/08/08 11:24:12;;;;;;;3.80;3.40;;;28.20;55.10;;;;;;5040133;28;20024;-70
2022/08/08 11:26:42;;;;;;;4.57;3.63;;;28.20;55.30;;;;;;5050653;28;20048;-71
2022/08/08 11:29:09;;;;;;;4.53;3.65;;;28.10;55.60;;;;;;5049959;28;20491;-69
2022/08/08 11:31:40;;;;;;;5.65;4.65;;;28.10;55.50;;;;;;5032034;28;20065;-70
2022/08/08 11:34:07;;;;;;;4.93;3.75;;;28.10;55.60;;;;;;5034477;28;20098;-68
2022/08/08 11:36:37;;;;;;;4.63;3.17;;;28.20;55.60;;;;;;5054366;28;20090;-67
2022/08/08 11:39:04;;;;;;;3.80;3.50;;;28.10;55.60;;;;;;5062403;28;20447;-73
2022/08/08 11:41:30;;;;;;;3.53;3.10;;;28.10;55.50;;;;;;5051084;28;20041;-71
2022/08/08 11:43:56;;;;;;;5.05;3.33;;;28.20;55.40;;;;;;5051498;28;20068;-65
2022/08/08 11:46:23;;;;;;;3.88;2.88;;;28.20;55.40;;;;;;5051230;28;20044;-69
2022/08/08 11:48:50;;;;;;;4.25;3.85;;;28.20;55.30;;;;;;5050992;28;20473;-70
2022/08/08 11:51:19;;;;;;;5.53;3.45;;;28.30;55.30;;;;;;5050985;28;20040;-67
2022/08/08 11:53:45;;;;;;;5.00;3.25;;;28.10;55.40;;;;;;5047742;28;20029;-68
2022/08/08 11:56:22;;;;;;;3.88;3.22;;;28.40;55.40;;;;;;5060747;28;20101;-67
2022/08/08 11:58:49;;;;;;;3.97;2.63;;;28.30;55.30;;;;;;5050032;28;20504;-67
2022/08/08 12:01:16;;;;;;;4.18;3.20;;;28.20;55.40;;;;;;5050975;28;20108;-70
2022/08/08 12:03:48;;;;;;;3.97;3.40;;;28.30;55.40;;;;;;5051260;28;20037;-71
2022/08/08 12:06:17;;;;;;;4.22;3.85;;;28.40;55.40;;;;;;5054400;28;20480;-70
2022/08/08 12:08:43;;;;;;;5.05;3.97;;;28.40;55.20;;;;;;5069489;28;20056;-70
2022/08/08 12:11:12;;;;;;;4.00;3.33;;;28.30;55.40;;;;;;5055469;28;20053;-70
2022/08/08 12:13:39;;;;;;;3.85;3.45;;;28.30;55.60;;;;;;5062144;28;20083;-69
2022/08/08 12:16:10;;;;;;;2.53;2.30;;;28.40;55.90;;;;;;5055324;28;20033;-69
2022/08/08 12:18:53;;;;;;;4.32;3.63;;;28.50;56.10;;;;;;5054966;28;20043;-69
2022/08/08 12:21:22;;;;;;;;;;;28.50;56.20;;;;;;5055664;28;20036;-69
2022/08/08 12:23:49;;;;;;;4.90;3.45;;;28.50;56.20;;;;;;5049360;28;20289;-69
2022/08/08 12:26:23;;;;;;;4.57;2.90;;;28.40;56.00;;;;;;5034757;28;20041;-69
2022/08/08 12:28:54;;;;;;;4.03;3.63;;;28.40;56.00;;;;;;5033596;28;20029;-69
2022/08/08 12:31:33;;;;;;;4.30;3.80;;;28.60;55.80;;;;;;5054899;28;20068;-69
2022/08/08 12:34:00;;;;;;;4.18;3.58;;;28.50;55.80;;;;;;5033450;28;20565;-69
2022/08/08 12:36:39;;;;;;;9.55;3.90;;;28.50;55.80;;;;;;5034545;28;20482;-70
2022/08/08 12:39:06;;;;;;;3.92;3.60;;;28.40;55.40;;;;;;5034462;28;20104;-69
2022/08/08 12:41:34;;;;;;;4.80;3.67;;;28.50;55.40;;;;;;5034675;28;20028;-70
2022/08/08 12:44:08;;;;;;;5.53;3.47;;;28.50;55.50;;;;;;5034327;28;20033;-70
2022/08/08 12:46:34;;;;;;;4.55;3.70;;;28.50;55.60;;;;;;5033229;28;20702;-69
2022/08/08 12:49:02;;;;;;;4.72;3.97;;;28.50;55.40;;;;;;5067835;28;20036;-69
2022/08/08 12:51:42;;;;;;;4.90;3.75;;;28.60;55.40;;;;;;5074369;28;20089;-69
2022/08/08 12:54:23;;;;;;;7.45;3.47;;;28.50;55.40;;;;;;5036509;28;20044;-69
2022/08/08 12:56:49;;;;;;;3.55;3.25;;;28.40;55.30;;;;;;5033928;28;20426;-69
2022/08/08 12:59:17;;;;;;;5.47;3.40;;;28.40;55.10;;;;;;5034428;28;20064;-69
2022/08/08 13:01:59;;;;;;;4.00;3.58;;;28.50;55.30;;;;;;5034421;28;20041;-69
2022/08/08 13:04:31;;;;;;;4.47;3.28;;;28.50;55.30;;;;;;5041634;28;20111;-70
2022/08/08 13:07:02;;;;;;;3.20;2.83;;;28.50;55.20;;;;;;5070986;28;20033;-69
2022/08/08 13:09:45;;;;;;;4.60;3.45;;;28.50;55.30;;;;;;5053835;28;20485;-69
2022/08/08 13:12:17;;;;;;;4.57;3.83;;;28.40;55.20;;;;;;5054097;28;20045;-70
2022/08/08 13:14:50;;;;;;;3.78;3.08;;;28.50;54.80;;;;;;5054091;28;20040;-70
2022/08/08 13:17:21;;;;;;;4.05;3.22;;;28.40;55.30;;;;;;5053253;28;20079;-69
2022/08/08 13:19:48;;;;;;;4.05;3.28;;;28.50;55.30;;;;;;5054374;28;20037;-69
2022/08/08 13:22:17;;;;;;;4.15;3.45;;;28.50;55.20;;;;;;5060360;28;20072;-69
2022/08/08 13:24:44;;;;;;;3.42;3.00;;;28.40;55.20;;;;;;5073897;28;20083;-69
2022/08/08 13:27:15;;;;;;;6.80;3.60;;;28.60;55.10;;;;;;5073462;28;20041;-69
2022/08/08 13:29:50;;;;;;;4.57;3.05;;;28.40;55.00;;;;;;5064093;28;20685;-69
2022/08/08 13:32:16;;;;;;;7.38;3.70;;;28.60;55.10;;;;;;5053456;28;20064;-69